createdAt,value
2022-09-21T00:01:05.878Z,102061.25
2022-09-21T00:03:10.674Z,102087.06
2022-09-21T00:05:14.044Z,102077.28
2022-09-21T00:07:17.385Z,102082.25
2022-09-21T00:09:20.832Z,102082.03
2022-09-21T00:11:26.583Z,102061.66
2022-09-21T00:13:30.170Z,102026.81
2022-09-21T00:15:33.678Z,102075.50
2022-09-21T00:17:38.238Z,102063.25
2022-09-21T00:34:57.538Z,102089.88
2022-09-21T00:37:00.808Z,102062.84
2022-09-21T00:39:04.600Z,102084.25
2022-09-21T00:41:09.354Z,102072.84
2022-09-21T00:43:17.243Z,102085.53
2022-09-21T00:45:22.012Z,102089.25
2022-09-21T00:47:31.916Z,102088.78
2022-09-21T00:49:36.756Z,102097.06
2022-09-21T00:51:42.421Z,102036.41
2022-09-21T00:53:46.894Z,102093.31
2022-09-21T00:55:55.920Z,102037.47
2022-09-21T00:58:04.522Z,102103.75
2022-09-21T01:00:10.788Z,102024.19
2022-09-21T01:02:15.845Z,102101.88
2022-09-21T01:04:19.657Z,102100.81
2022-09-21T01:06:23.263Z,102101.81
2022-09-21T01:08:29.495Z,102102.84
2022-09-21T01:10:43.135Z,102059.06
2022-09-21T01:13:01.946Z,102100.25
2022-09-21T01:15:20.904Z,102101.34
2022-09-21T01:17:33.662Z,102076.22
2022-09-21T01:20:08.369Z,102099.34
2022-09-21T01:22:20.240Z,102043.59
2022-09-21T01:24:45.670Z,102106.28
2022-09-21T01:27:07.540Z,102098.66
2022-09-21T01:29:21.145Z,102085.31
2022-09-21T01:31:29.642Z,102089.38
2022-09-21T01:33:37.839Z,102088.81
2022-09-21T01:35:47.533Z,102099.88
2022-09-21T01:37:57.571Z,102031.13
2022-09-21T01:40:05.704Z,102097.84
2022-09-21T01:42:10.075Z,102108.19
2022-09-21T01:44:19.806Z,102111.50
2022-09-21T01:46:26.768Z,102111.38
2022-09-21T01:48:35.799Z,102054.66
2022-09-21T01:50:45.227Z,102105.50
2022-09-21T01:52:53.903Z,102104.47
2022-09-21T01:55:02.482Z,102098.38
2022-09-21T01:57:11.366Z,102087.75
2022-09-21T01:59:23.066Z,102073.28
2022-09-21T02:01:29.397Z,102097.38
2022-09-21T02:03:38.067Z,102012.06
2022-09-21T02:05:42.701Z,102066.13
2022-09-21T02:07:47.792Z,102092.47
2022-09-21T02:09:51.169Z,101982.81
2022-09-21T02:11:54.519Z,102105.16
2022-09-21T02:13:57.893Z,102039.91
2022-09-21T02:16:20.380Z,102103.81
2022-09-21T02:18:37.263Z,102101.78
2022-09-21T02:20:50.090Z,102106.72
2022-09-21T02:23:04.412Z,102088.66
2022-09-21T02:25:11.902Z,102082.97
2022-09-21T02:27:25.565Z,102086.34
2022-09-21T02:29:36.288Z,102104.44
2022-09-21T02:31:48.153Z,102085.50
2022-09-21T02:33:59.912Z,102090.50
2022-09-21T02:36:08.596Z,102092.41
2022-09-21T02:38:18.670Z,102095.09
2022-09-21T02:40:28.987Z,102090.69
2022-09-21T02:42:36.626Z,102103.16
2022-09-21T02:44:43.684Z,102091.19
2022-09-21T02:46:55.035Z,102071.84
2022-09-21T02:49:01.613Z,102097.78
2022-09-21T02:51:10.543Z,102099.59
2022-09-21T02:53:19.094Z,101997.09
2022-09-21T02:55:23.840Z,102098.53
2022-09-21T02:57:27.954Z,102098.81
2022-09-21T02:59:31.636Z,102079.84
2022-09-21T03:01:35.956Z,102092.38
2022-09-21T03:03:40.629Z,102037.31
2022-09-21T03:05:44.676Z,102060.63
2022-09-21T03:07:48.122Z,102087.81
2022-09-21T03:09:51.439Z,102090.81
2022-09-21T03:11:55.000Z,102077.53
2022-09-21T03:13:59.312Z,102093.69
2022-09-21T03:16:04.916Z,102060.69
2022-09-21T03:18:11.307Z,102086.53
2022-09-21T03:20:16.481Z,102093.13
2022-09-21T03:22:21.224Z,102092.13
2022-09-21T03:24:38.638Z,102083.34
2022-09-21T03:26:43.343Z,102092.94
2022-09-21T03:28:46.681Z,102040.53
2022-09-21T03:30:51.345Z,102073.00
2022-09-21T03:32:55.382Z,102100.69
2022-09-21T03:34:58.646Z,102105.88
2022-09-21T03:37:04.062Z,102081.63
2022-09-21T03:39:07.399Z,102069.91
2022-09-21T03:41:11.007Z,102111.56
2022-09-21T03:43:14.837Z,102109.53
2022-09-21T03:45:18.462Z,102108.97
2022-09-21T03:47:22.478Z,102114.53
2022-09-21T03:49:26.063Z,101999.63
2022-09-21T03:51:31.469Z,102106.59
2022-09-21T03:53:36.126Z,102107.66
2022-09-21T03:55:39.593Z,102109.31
2022-09-21T03:57:43.035Z,102066.25
2022-09-21T03:59:46.371Z,102100.91
2022-09-21T04:01:49.786Z,102073.72
2022-09-21T04:03:53.255Z,102084.81
2022-09-21T04:05:56.741Z,101955.50
2022-09-21T04:08:02.074Z,102080.22
2022-09-21T04:10:09.112Z,102105.53
2022-09-21T04:12:12.845Z,102109.06
2022-09-21T04:14:17.430Z,102069.38
2022-09-21T04:16:20.787Z,102103.84
2022-09-21T04:18:24.197Z,102112.22
2022-09-21T04:20:27.614Z,102078.78
2022-09-21T04:22:31.434Z,102070.25
2022-09-21T04:24:34.770Z,102105.94
2022-09-21T04:26:40.720Z,102098.00
2022-09-21T04:28:44.233Z,102109.75
2022-09-21T04:30:47.752Z,102104.53
2022-09-21T04:32:51.216Z,102081.06
2022-09-21T04:34:54.598Z,102113.84
2022-09-21T04:36:58.437Z,102115.53
2022-09-21T04:39:02.503Z,102099.31
2022-09-21T04:41:06.111Z,102128.97
2022-09-21T04:43:10.843Z,102082.81
2022-09-21T04:45:14.208Z,102077.72
2022-09-21T04:47:17.532Z,102114.97
2022-09-21T04:49:20.953Z,102122.84
2022-09-21T04:51:24.465Z,102107.41
2022-09-21T04:53:27.860Z,102120.56
2022-09-21T04:55:31.247Z,102098.25
2022-09-21T04:57:35.683Z,102073.88
2022-09-21T04:59:40.499Z,102121.72
2022-09-21T05:01:43.948Z,102131.38
2022-09-21T05:03:47.419Z,102119.72
2022-09-21T05:05:52.211Z,102133.81
2022-09-21T05:07:55.604Z,102136.53
2022-09-21T05:10:04.259Z,102106.16
2022-09-21T05:12:08.111Z,102106.03
2022-09-21T05:14:12.000Z,102140.38
2022-09-21T05:16:16.926Z,102135.16
2022-09-21T05:18:20.358Z,102136.69
2022-09-21T05:20:26.433Z,102110.44
2022-09-21T05:22:29.937Z,102147.28
2022-09-21T05:24:33.430Z,102152.72
2022-09-21T05:26:36.819Z,102151.91
2022-09-21T05:28:40.886Z,102156.06
2022-09-21T05:31:07.255Z,102154.78
2022-09-21T05:33:14.836Z,102152.47
2022-09-21T05:35:29.851Z,102162.00
2022-09-21T05:37:44.335Z,102178.00
2022-09-21T05:39:48.283Z,102162.22
2022-09-21T05:41:52.255Z,102169.19
2022-09-21T05:43:56.441Z,102164.72
2022-09-21T05:46:05.225Z,102164.28
2022-09-21T05:48:17.176Z,102152.22
2022-09-21T05:50:30.973Z,102132.75
2022-09-21T05:52:44.415Z,102166.88
2022-09-21T05:54:59.848Z,102142.41
2022-09-21T05:57:08.836Z,102153.97
2022-09-21T05:59:45.076Z,102172.81
2022-09-21T06:01:59.785Z,102162.38
2022-09-21T06:04:05.412Z,102185.09
2022-09-21T06:06:10.042Z,102182.56
2022-09-21T06:08:13.479Z,102186.22
2022-09-21T06:10:17.370Z,102182.56
2022-09-21T06:12:20.897Z,102179.72
2022-09-21T06:14:26.504Z,102134.38
2022-09-21T06:16:38.460Z,102195.34
2022-09-21T06:18:42.649Z,102178.03
2022-09-21T06:20:47.518Z,102188.34
2022-09-21T06:22:50.834Z,102200.25
2022-09-21T06:24:54.258Z,102159.28
2022-09-21T06:26:57.640Z,102200.94
2022-09-21T06:29:01.394Z,102187.22
2022-09-21T06:31:04.909Z,102164.31
2022-09-21T06:33:09.026Z,102200.94
2022-09-21T06:35:12.383Z,102202.19
2022-09-21T06:37:20.289Z,102079.34
2022-09-21T06:39:23.836Z,102210.91
2022-09-21T06:41:27.241Z,102178.69
2022-09-21T06:43:30.987Z,102157.97
2022-09-21T06:45:34.663Z,102199.47
2022-09-21T06:47:38.270Z,102203.66
2022-09-21T06:49:42.638Z,102196.53
2022-09-21T06:51:48.178Z,102205.47
2022-09-21T06:53:56.130Z,102203.59
2022-09-21T06:56:03.205Z,102193.09
2022-09-21T06:58:06.547Z,102205.00
2022-09-21T07:00:12.430Z,102151.47
2022-09-21T07:02:16.404Z,102204.44
2022-09-21T07:04:25.002Z,102206.59
2022-09-21T07:06:29.420Z,102204.00
2022-09-21T07:11:00.534Z,102213.72
2022-09-21T07:13:05.902Z,102170.94
2022-09-21T07:15:11.844Z,102206.34
2022-09-21T07:17:16.190Z,102210.81
2022-09-21T07:19:19.586Z,102221.72
2022-09-21T07:21:22.958Z,102211.72
2022-09-21T07:23:26.411Z,102209.09
2022-09-21T07:25:29.830Z,102207.56
2022-09-21T07:27:34.991Z,102214.75
2022-09-21T07:29:38.390Z,102149.59
2022-09-21T07:31:44.961Z,102215.22
2022-09-21T07:33:48.341Z,102213.41
2022-09-21T07:35:52.869Z,102208.19
2022-09-21T07:37:58.987Z,102210.31
2022-09-21T07:40:05.928Z,102199.72
2022-09-21T07:42:09.714Z,102207.22
2022-09-21T07:44:14.450Z,102208.09
2022-09-21T07:46:17.849Z,102186.22
2022-09-21T07:48:22.503Z,102201.25
2022-09-21T07:50:25.904Z,102007.16
2022-09-21T07:52:29.458Z,102180.63
2022-09-21T07:54:33.739Z,102199.50
2022-09-21T07:56:38.494Z,102192.50
2022-09-21T07:59:00.200Z,102201.50
2022-09-21T08:01:07.959Z,102200.25
2022-09-21T08:03:12.286Z,102173.28
2022-09-21T08:05:16.236Z,102181.25
2022-09-21T08:07:19.619Z,102144.84
2022-09-21T08:09:23.221Z,102194.00
2022-09-21T08:11:27.950Z,102184.53
2022-09-21T08:13:31.640Z,102206.75
2022-09-21T08:15:49.287Z,102210.09
2022-09-21T08:17:55.190Z,102206.31
2022-09-21T08:19:58.646Z,102213.94
2022-09-21T08:22:02.001Z,102215.41
2022-09-21T08:24:05.928Z,102218.69
2022-09-21T08:26:11.599Z,102208.25
2022-09-21T08:28:15.078Z,102219.41
2022-09-21T08:30:18.755Z,102218.75
2022-09-21T08:32:39.743Z,102189.63
2022-09-21T08:34:46.885Z,102219.16
2022-09-21T08:36:55.013Z,102221.16
2022-09-21T08:38:59.049Z,102165.06
2022-09-21T08:41:03.918Z,102212.41
2022-09-21T08:43:13.198Z,102218.47
2022-09-21T08:45:19.987Z,102222.19
2022-09-21T08:47:34.605Z,102148.69
2022-09-21T08:49:41.838Z,102181.34
2022-09-21T08:51:53.310Z,102210.41
2022-09-21T08:54:00.269Z,102214.34
2022-09-21T08:56:04.448Z,102207.91
2022-09-21T08:58:21.843Z,102211.66
2022-09-21T09:00:25.739Z,102209.47
2022-09-21T09:02:42.635Z,102192.94
2022-09-21T09:04:59.174Z,102149.44
2022-09-21T09:07:27.352Z,102213.88
2022-09-21T09:09:55.872Z,102206.97
2022-09-21T09:12:11.506Z,102210.97
2022-09-21T09:14:48.858Z,102205.00
2022-09-21T09:17:06.905Z,102193.78
2022-09-21T09:19:20.838Z,102215.97
2022-09-21T09:21:31.911Z,102175.41
2022-09-21T09:23:42.800Z,102206.31
2022-09-21T09:25:50.986Z,102209.16
2022-09-21T09:27:58.255Z,102201.31
2022-09-21T09:30:05.550Z,102183.97
2022-09-21T09:32:14.183Z,102091.25
2022-09-21T09:34:25.005Z,102047.88
2022-09-21T09:36:56.689Z,102164.97
2022-09-21T09:39:01.579Z,102206.56
2022-09-21T09:41:28.455Z,102102.38
2022-09-21T09:43:47.705Z,102158.88
2022-09-21T09:46:03.956Z,102029.41
2022-09-21T09:48:26.513Z,102198.34
2022-09-21T09:50:31.279Z,102098.75
2022-09-21T09:52:35.308Z,102205.16
2022-09-21T09:54:40.282Z,102134.03
2022-09-21T09:56:44.243Z,102104.41
2022-09-21T09:58:53.652Z,102103.31
2022-09-21T10:00:58.939Z,102116.63
2022-09-21T10:03:02.487Z,102202.78
2022-09-21T10:05:07.462Z,102140.44
2022-09-21T10:07:19.392Z,102044.47
2022-09-21T10:09:28.447Z,102125.25
2022-09-21T10:11:39.474Z,102155.34
2022-09-21T10:13:44.814Z,102202.38
2022-09-21T10:15:51.456Z,102202.47
2022-09-21T10:18:02.128Z,102151.22
2022-09-21T10:20:08.258Z,102196.13
2022-09-21T10:22:17.863Z,102075.59
2022-09-21T10:24:24.391Z,102098.19
2022-09-21T10:26:33.091Z,102075.06
2022-09-21T10:28:38.623Z,102028.03
2022-09-21T10:30:42.018Z,102187.06
2022-09-21T10:32:56.758Z,102190.66
2022-09-21T10:35:19.158Z,102101.16
2022-09-21T10:37:28.126Z,102083.06
2022-09-21T10:39:32.356Z,102100.84
2022-09-21T10:41:38.275Z,102183.44
2022-09-21T10:43:44.494Z,102151.78
2022-09-21T10:45:55.064Z,102154.88
2022-09-21T10:48:07.949Z,102191.06
2022-09-21T10:50:24.601Z,102104.72
2022-09-21T10:52:34.711Z,102071.78
2022-09-21T10:54:40.807Z,102091.47
2022-09-21T10:56:53.972Z,102179.09
2022-09-21T10:59:23.411Z,102174.41
2022-09-21T11:01:31.167Z,102170.53
2022-09-21T11:03:48.432Z,102170.34
2022-09-21T11:05:54.622Z,102169.19
2022-09-21T11:08:03.577Z,102147.91
2022-09-21T11:10:16.183Z,102169.78
2022-09-21T11:12:44.984Z,102154.09
2022-09-21T11:14:54.144Z,102083.94
2022-09-21T11:17:03.295Z,102154.97
2022-09-21T11:19:18.240Z,102171.97
2022-09-21T11:21:31.480Z,102169.56
2022-09-21T11:23:45.593Z,102144.94
2022-09-21T11:25:56.379Z,102103.88
2022-09-21T11:28:07.152Z,102162.91
2022-09-21T11:30:14.382Z,102094.91
2022-09-21T11:32:37.258Z,102152.13
2022-09-21T11:35:04.187Z,102145.38
2022-09-21T11:37:17.597Z,102130.34
2022-09-21T11:39:27.627Z,102123.78
2022-09-21T11:41:46.080Z,102149.47
2022-09-21T11:44:17.094Z,102137.88
2022-09-21T11:46:33.282Z,102099.25
2022-09-21T11:48:51.058Z,102132.19
2022-09-21T11:51:06.541Z,102136.59
2022-09-21T11:53:25.431Z,102129.81
2022-09-21T11:55:53.306Z,102112.19
2022-09-21T11:58:04.006Z,101998.28
2022-09-21T12:00:16.425Z,102124.84
2022-09-21T12:02:37.264Z,102123.34
2022-09-21T12:04:49.422Z,102122.75
2022-09-21T12:07:07.670Z,102078.84
2022-09-21T12:09:44.893Z,102107.84
2022-09-21T12:11:56.544Z,102113.38
2022-09-21T12:14:09.128Z,102122.88
2022-09-21T12:16:19.418Z,102109.66
2022-09-21T12:18:32.523Z,102050.69
2022-09-21T12:20:47.239Z,102113.81
2022-09-21T12:22:57.903Z,102094.59
2022-09-21T12:25:06.459Z,102076.88
2022-09-21T12:27:28.708Z,102090.16
2022-09-21T12:29:39.043Z,102105.47
2022-09-21T12:31:48.345Z,102098.56
2022-09-21T12:33:57.741Z,102095.19
2022-09-21T12:36:09.192Z,102030.47
2022-09-21T12:38:17.866Z,102092.88
2022-09-21T12:40:27.889Z,102097.41
2022-09-21T12:42:40.083Z,102094.69
2022-09-21T12:44:54.847Z,101986.81
2022-09-21T12:47:09.394Z,102056.13
2022-09-21T12:49:20.383Z,102012.56
2022-09-21T12:51:29.625Z,102013.38
2022-09-21T12:53:37.761Z,102095.13
2022-09-21T12:55:50.030Z,102096.91
2022-09-21T12:58:16.377Z,101964.81
2022-09-21T13:00:22.577Z,102053.50
2022-09-21T13:02:35.241Z,102064.09
2022-09-21T13:04:53.383Z,102056.91
2022-09-21T13:07:19.633Z,102073.50
2022-09-21T13:09:24.359Z,101968.22
2022-09-21T13:11:27.917Z,102080.72
2022-09-21T13:13:33.981Z,102085.44
2022-09-21T13:15:45.597Z,101995.50
2022-09-21T13:18:02.295Z,101983.69
2022-09-21T13:20:17.894Z,102060.88
2022-09-21T13:22:25.127Z,102009.94
2022-09-21T13:24:31.674Z,102074.69
2022-09-21T13:26:40.113Z,102020.91
2022-09-21T13:29:06.201Z,102071.25
2022-09-21T13:31:47.720Z,102076.50
2022-09-21T13:34:08.775Z,102046.00
2022-09-21T13:36:35.194Z,102036.88
2022-09-21T13:38:58.415Z,102070.81
2022-09-21T13:41:08.004Z,102013.84
2022-09-21T13:43:22.435Z,102052.06
2022-09-21T13:45:53.361Z,102059.09
2022-09-21T13:48:00.124Z,102037.69
2022-09-21T13:50:12.547Z,102052.72
2022-09-21T13:52:32.022Z,102020.31
2022-09-21T13:54:39.990Z,102057.72
2022-09-21T13:56:45.655Z,102053.16
2022-09-21T13:58:53.189Z,102022.06
2022-09-21T14:00:59.927Z,102041.59
2022-09-21T14:03:07.488Z,102047.09
2022-09-21T14:05:25.385Z,101977.03
2022-09-21T14:07:33.221Z,102044.56
2022-09-21T14:09:44.470Z,102037.41
2022-09-21T14:11:56.438Z,102035.75
2022-09-21T14:14:09.475Z,101922.66
2022-09-21T14:17:03.399Z,102034.13
2022-09-21T14:19:45.525Z,102040.13
2022-09-21T14:22:26.530Z,102038.28
2022-09-21T14:24:38.798Z,102015.25
2022-09-21T14:26:52.021Z,102030.47
2022-09-21T14:28:55.577Z,102027.66
2022-09-21T14:31:03.033Z,102038.22
2022-09-21T14:33:33.909Z,102006.28
2022-09-21T14:35:41.184Z,102012.69
2022-09-21T14:37:52.111Z,102034.13
2022-09-21T14:39:59.348Z,101961.41
2022-09-21T14:42:12.170Z,101932.22
2022-09-21T14:44:21.061Z,101932.16
2022-09-21T14:46:45.210Z,101989.16
2022-09-21T14:49:00.107Z,102020.91
2022-09-21T14:51:13.447Z,101868.53
2022-09-21T14:53:35.618Z,101990.78
2022-09-21T14:55:56.133Z,102005.34
2022-09-21T14:58:14.346Z,101968.16
2022-09-21T15:00:23.388Z,102010.91
2022-09-21T15:02:28.800Z,102010.94
2022-09-21T15:04:45.889Z,102008.28
2022-09-21T15:07:16.505Z,102002.94
2022-09-21T15:09:59.488Z,101994.88
2022-09-21T15:12:12.062Z,101971.81
2022-09-21T15:14:21.979Z,101994.94
2022-09-21T15:16:37.550Z,101969.31
2022-09-21T15:18:42.525Z,101996.78
2022-09-21T15:20:46.214Z,101901.09
2022-09-21T15:22:49.546Z,101987.03
2022-09-21T15:24:55.617Z,101989.69
2022-09-21T15:27:10.258Z,101987.91
2022-09-21T15:29:27.488Z,101982.63
2022-09-21T15:31:34.934Z,101984.38
2022-09-21T15:33:39.308Z,101985.28
2022-09-21T15:35:47.666Z,101974.63
2022-09-21T15:37:52.577Z,101979.06
2022-09-21T15:40:01.904Z,101893.13
2022-09-21T15:42:22.711Z,101878.91
2022-09-21T15:44:34.128Z,101974.56
2022-09-21T15:46:37.563Z,101845.31
2022-09-21T15:48:42.442Z,101933.84
2022-09-21T15:50:49.733Z,101876.28
2022-09-21T15:52:57.385Z,101977.19
2022-09-21T15:55:02.802Z,101936.53
2022-09-21T15:57:27.094Z,101875.44
2022-09-21T15:59:31.011Z,101884.25
2022-09-21T16:01:40.871Z,101877.16
2022-09-21T16:03:45.146Z,101883.31
2022-09-21T16:05:50.581Z,101957.78
2022-09-21T16:08:07.942Z,101969.31
2022-09-21T16:10:36.433Z,101948.06
2022-09-21T16:12:42.630Z,101976.34
2022-09-21T16:14:54.004Z,101965.59
2022-09-21T16:17:24.699Z,101969.13
2022-09-21T16:19:42.112Z,101969.97
2022-09-21T16:21:45.554Z,101963.91
2022-09-21T16:23:49.921Z,101929.88
2022-09-21T16:26:00.821Z,101884.50
2022-09-21T16:28:11.129Z,101968.72
2022-09-21T16:30:40.938Z,101923.47
2022-09-21T16:32:48.147Z,101939.44
2022-09-21T16:34:53.185Z,101896.66
2022-09-21T16:36:57.336Z,101779.38
2022-09-21T16:39:06.107Z,101973.56
2022-09-21T16:41:10.880Z,101971.63
2022-09-21T16:43:16.361Z,101969.75
2022-09-21T16:45:25.148Z,101975.66
2022-09-21T16:47:29.836Z,101973.41
2022-09-21T16:49:35.050Z,101969.22
2022-09-21T16:51:42.943Z,101956.84
2022-09-21T16:53:46.338Z,101953.44
2022-09-21T16:55:49.639Z,101965.84
2022-09-21T16:57:53.126Z,101955.13
2022-09-21T16:59:58.924Z,101960.41
2022-09-21T17:02:04.946Z,101964.59
2022-09-21T17:04:08.357Z,101966.19
2022-09-21T17:06:16.685Z,101962.50
2022-09-21T17:08:20.887Z,101967.69
2022-09-21T17:10:29.200Z,101917.84
2022-09-21T17:12:32.560Z,101965.72
2022-09-21T17:14:40.020Z,101962.13
2022-09-21T17:16:50.733Z,101964.69
2022-09-21T17:18:54.084Z,101981.31
2022-09-21T17:20:57.487Z,101972.34
2022-09-21T17:23:01.991Z,101973.19
2022-09-21T17:25:06.244Z,101922.34
2022-09-21T17:27:09.847Z,101968.38
2022-09-21T17:29:23.050Z,101975.34
2022-09-21T17:31:28.133Z,101975.13
2022-09-21T17:33:33.086Z,101967.06
2022-09-21T17:35:39.836Z,101976.63
2022-09-21T17:37:43.168Z,101977.47
2022-09-21T17:39:47.223Z,101908.00
2022-09-21T17:41:53.512Z,101975.47
2022-09-21T17:44:05.074Z,101968.22
2022-09-21T17:46:15.674Z,101965.47
2022-09-21T17:48:21.030Z,101971.41
2022-09-21T17:50:27.660Z,101975.47
2022-09-21T17:52:49.435Z,101973.59
2022-09-21T17:54:53.177Z,101973.44
2022-09-21T17:57:07.558Z,101967.06
2022-09-21T17:59:26.296Z,101974.91
2022-09-21T18:01:33.770Z,101956.84
2022-09-21T18:03:41.057Z,101973.69
2022-09-21T18:05:46.572Z,101956.63
2022-09-21T18:07:50.948Z,101983.00
2022-09-21T18:09:54.891Z,101879.59
2022-09-21T18:12:40.208Z,101981.00
2022-09-21T18:14:54.583Z,102000.13
2022-09-21T18:17:11.776Z,101983.28
2022-09-21T18:19:31.021Z,101987.06
2022-09-21T18:21:41.475Z,101989.22
2022-09-21T18:23:54.406Z,101932.84
2022-09-21T18:25:58.485Z,101928.84
2022-09-21T18:28:12.277Z,101959.38
2022-09-21T18:30:16.781Z,101993.13
2022-09-21T18:32:39.580Z,101982.75
2022-09-21T18:34:59.680Z,101980.91
2022-09-21T18:37:12.971Z,101965.72
2022-09-21T18:39:27.800Z,101986.28
2022-09-21T18:41:37.290Z,101998.34
2022-09-21T18:43:58.263Z,101991.31
2022-09-21T18:46:04.667Z,101993.34
2022-09-21T18:48:22.638Z,101996.03
2022-09-21T18:50:31.909Z,102000.50
2022-09-21T18:52:51.547Z,101966.16
2022-09-21T18:54:55.168Z,101995.59
2022-09-21T18:56:59.257Z,101994.69
2022-09-21T18:59:03.403Z,102004.38
2022-09-21T19:01:07.755Z,101981.50
2022-09-21T19:03:18.300Z,102002.03
2022-09-21T19:05:22.872Z,101930.13
2022-09-21T19:07:39.905Z,102005.47
2022-09-21T19:09:53.820Z,101867.00
2022-09-21T19:12:05.022Z,101941.09
2022-09-21T19:14:16.631Z,102003.03
2022-09-21T19:16:30.115Z,102007.44
2022-09-21T19:18:44.702Z,101924.94
2022-09-21T19:21:00.099Z,102000.78
2022-09-21T19:23:18.093Z,101956.09
2022-09-21T19:25:31.173Z,101960.66
2022-09-21T19:27:39.456Z,101971.13
2022-09-21T19:29:54.530Z,102002.72
2022-09-21T19:31:58.134Z,102003.47
2022-09-21T19:34:11.237Z,102001.78
2022-09-21T19:36:15.192Z,101998.28
2022-09-21T19:38:20.307Z,102002.13
2022-09-21T19:40:27.594Z,101980.88
2022-09-21T19:42:41.389Z,102005.09
2022-09-21T19:45:07.886Z,102002.44
2022-09-21T19:47:24.564Z,102005.09
2022-09-21T19:49:37.362Z,101997.09
2022-09-21T19:51:47.777Z,102000.34
2022-09-21T19:54:14.445Z,101985.72
2022-09-21T19:56:36.936Z,101977.84
2022-09-21T19:58:58.302Z,101982.81
2022-09-21T20:01:01.860Z,101956.94
2022-09-21T20:03:11.404Z,101996.63
2022-09-21T20:05:23.224Z,101998.41
2022-09-21T20:07:37.571Z,101988.97
2022-09-21T20:09:45.034Z,101997.00
2022-09-21T20:11:56.380Z,101990.75
2022-09-21T20:14:17.192Z,101934.38
2022-09-21T20:16:33.500Z,101964.75
2022-09-21T20:18:45.856Z,101994.06
2022-09-21T20:20:49.562Z,101979.13
2022-09-21T20:22:53.695Z,101994.06
2022-09-21T20:25:01.735Z,102001.03
2022-09-21T20:27:21.046Z,101981.66
2022-09-21T20:29:24.537Z,101956.59
2022-09-21T20:31:27.989Z,101982.50
2022-09-21T20:33:32.104Z,102001.03
2022-09-21T20:35:36.027Z,101995.78
2022-09-21T20:37:39.386Z,102006.19
2022-09-21T20:39:42.715Z,101997.38
2022-09-21T20:41:46.357Z,101949.72
2022-09-21T20:43:51.083Z,101954.13
2022-09-21T20:45:57.731Z,102000.25
2022-09-21T20:48:13.019Z,101985.97
2022-09-21T20:50:16.819Z,101994.88
2022-09-21T20:52:20.314Z,101923.56
2022-09-21T20:54:23.682Z,101997.41
2022-09-21T20:56:26.959Z,101992.94
2022-09-21T20:58:30.901Z,101970.47
2022-09-21T21:00:36.701Z,101992.72
2022-09-21T21:02:40.010Z,101885.19
2022-09-21T21:04:43.390Z,101988.09
2022-09-21T21:06:46.806Z,101805.19
2022-09-21T21:08:50.159Z,101998.00
2022-09-21T21:10:56.715Z,101998.00
2022-09-21T21:13:00.231Z,101970.34
2022-09-21T21:15:03.597Z,101980.81
2022-09-21T21:17:08.334Z,101974.56
2022-09-21T21:19:12.306Z,101991.28
2022-09-21T21:21:15.663Z,101956.16
2022-09-21T21:23:19.103Z,101988.28
2022-09-21T21:25:21.489Z,101981.34
2022-09-21T21:27:26.608Z,101994.00
2022-09-21T21:29:29.947Z,101989.16
2022-09-21T21:31:33.525Z,101967.22
2022-09-21T21:33:38.309Z,101995.81
2022-09-21T21:35:42.151Z,101972.03
2022-09-21T21:37:45.715Z,101958.13
2022-09-21T21:39:49.075Z,101998.06
2022-09-21T21:41:52.478Z,101993.31
2022-09-21T21:43:56.236Z,101927.75
2022-09-21T21:46:02.516Z,101993.75
2022-09-21T21:48:06.463Z,101991.94
2022-09-21T21:50:11.990Z,101989.97
2022-09-21T21:52:15.816Z,101980.00
2022-09-21T21:54:19.505Z,101942.94
2022-09-21T21:56:23.312Z,101988.66
2022-09-21T21:58:27.631Z,101960.59
2022-09-21T22:00:31.031Z,101877.91
2022-09-21T22:02:34.465Z,101933.41
2022-09-21T22:04:38.704Z,101984.28
2022-09-21T22:06:43.827Z,101983.69
2022-09-21T22:08:47.375Z,101959.63
2022-09-21T22:10:51.771Z,101985.19
2022-09-21T22:12:57.071Z,101947.69
2022-09-21T22:15:00.687Z,101978.72
2022-09-21T22:17:04.663Z,101888.00
2022-09-21T22:19:09.358Z,101975.72
2022-09-21T22:21:18.207Z,101954.03
2022-09-21T22:23:23.474Z,101895.41
2022-09-21T22:25:26.931Z,101981.97
2022-09-21T22:27:30.888Z,101992.00
2022-09-21T22:29:35.381Z,101984.28
2022-09-21T22:31:41.051Z,101978.28
2022-09-21T22:33:45.827Z,101928.28
2022-09-21T22:35:49.196Z,101979.75
2022-09-21T22:37:52.775Z,101896.84
2022-09-21T22:39:57.533Z,101937.97
2022-09-21T22:42:01.440Z,101950.63
2022-09-21T22:44:05.250Z,101977.53
2022-09-21T22:46:08.868Z,101983.66
2022-09-21T22:48:12.370Z,101973.16
2022-09-21T22:50:15.764Z,101941.09
2022-09-21T22:52:19.169Z,101965.72
2022-09-21T22:54:23.021Z,101843.25
2022-09-21T22:56:29.936Z,101965.72
2022-09-21T22:58:34.651Z,101937.47
2022-09-21T23:00:38.073Z,101985.53
2022-09-21T23:02:42.296Z,101979.38
2022-09-21T23:04:46.072Z,101981.91
2022-09-21T23:06:50.237Z,101844.59
2022-09-21T23:08:56.216Z,101944.94
2022-09-21T23:11:06.871Z,101965.59
2022-09-21T23:13:15.415Z,101939.56
2022-09-21T23:15:19.232Z,101919.13
2022-09-21T23:17:22.666Z,101958.28
2022-09-21T23:19:26.266Z,101886.75
2022-09-21T23:21:31.397Z,101922.59
2022-09-21T23:23:35.472Z,101867.78
2022-09-21T23:25:38.994Z,101817.72
2022-09-21T23:27:42.491Z,101945.53
2022-09-21T23:29:47.231Z,101965.09
2022-09-21T23:31:50.935Z,101962.56
2022-09-21T23:33:56.401Z,101964.38
2022-09-21T23:36:00.132Z,101933.91
2022-09-21T23:38:03.581Z,101935.72
2022-09-21T23:40:08.208Z,101983.88
2022-09-21T23:42:11.821Z,101988.75
2022-09-21T23:44:15.310Z,101944.16
2022-09-21T23:46:22.003Z,101841.47
2022-09-21T23:48:26.840Z,101960.78
2022-09-21T23:50:30.258Z,101931.88
2022-09-21T23:52:34.013Z,101987.28
2022-09-21T23:54:37.636Z,101979.22
2022-09-21T23:56:41.134Z,101960.59
2022-09-21T23:58:45.102Z,101934.22
